Terminal Aerodrome Forecast
Issued by NWS

Home | Current Version | Previous Version | Text Only | Print | Product List | Glossary On
Versions: 1 2 3 4 5 6 7 8 9 10 11 12 13 14 15 16 17 18
000
FTUS44 KBMX 021128
TAFTCL
TAF
KTCL 021128Z 0212/0312 VRB03KT 4SM BR BKN015
     FM021500 36005KT P6SM SCT050 SCT250
     FM030300 00000KT P6SM SKC=

USA.gov is the U.S. government's official web portal to all federal, state and local government web resources and services.